sensor_id;sensor_type;location;lat;lon;timestamp;temperature;humidity
6964;DHT22;3522;50.856;7.278;2022-08-19T00:00:15;18.00;99.90
6964;DHT22;3522;50.856;7.278;2022-08-19T00:02:41;18.00;99.90
6964;DHT22;3522;50.856;7.278;2022-08-19T00:05:08;18.00;99.90
6964;DHT22;3522;50.856;7.278;2022-08-19T00:07:35;18.00;99.90
6964;DHT22;3522;50.856;7.278;2022-08-19T00:10:03;18.00;99.90
6964;DHT22;3522;50.856;7.278;2022-08-19T00:12:30;17.90;99.90
6964;DHT22;3522;50.856;7.278;2022-08-19T00:14:57;18.00;99.90
6964;DHT22;3522;50.856;7.278;2022-08-19T00:17:24;17.90;99.90
6964;DHT22;3522;50.856;7.278;2022-08-19T00:19:51;18.00;99.90
6964;DHT22;3522;50.856;7.278;2022-08-19T00:22:17;18.00;99.90
6964;DHT22;3522;50.856;7.278;2022-08-19T00:24:44;18.00;99.90
6964;DHT22;3522;50.856;7.278;2022-08-19T00:27:10;17.90;99.90
6964;DHT22;3522;50.856;7.278;2022-08-19T00:29:37;18.00;99.90
6964;DHT22;3522;50.856;7.278;2022-08-19T00:32:05;18.00;99.90
6964;DHT22;3522;50.856;7.278;2022-08-19T00:34:32;18.00;99.90
6964;DHT22;3522;50.856;7.278;2022-08-19T00:36:58;18.00;99.90
6964;DHT22;3522;50.856;7.278;2022-08-19T00:39:25;18.10;99.90
6964;DHT22;3522;50.856;7.278;2022-08-19T00:41:52;18.10;99.90
6964;DHT22;3522;50.856;7.278;2022-08-19T00:44:19;18.20;99.90
6964;DHT22;3522;50.856;7.278;2022-08-19T00:46:47;18.20;99.90
6964;DHT22;3522;50.856;7.278;2022-08-19T00:49:16;18.20;99.90
6964;DHT22;3522;50.856;7.278;2022-08-19T00:51:47;18.20;99.90
6964;DHT22;3522;50.856;7.278;2022-08-19T00:54:15;18.20;99.90
6964;DHT22;3522;50.856;7.278;2022-08-19T00:56:42;18.20;99.90
6964;DHT22;3522;50.856;7.278;2022-08-19T00:59:09;18.20;99.90
6964;DHT22;3522;50.856;7.278;2022-08-19T01:01:36;18.20;99.90
6964;DHT22;3522;50.856;7.278;2022-08-19T01:04:03;18.30;99.90
6964;DHT22;3522;50.856;7.278;2022-08-19T01:06:31;18.20;99.90
6964;DHT22;3522;50.856;7.278;2022-08-19T01:08:57;18.20;99.90
6964;DHT22;3522;50.856;7.278;2022-08-19T01:11:24;18.10;99.90
6964;DHT22;3522;50.856;7.278;2022-08-19T01:13:52;18.00;99.90
6964;DHT22;3522;50.856;7.278;2022-08-19T01:16:19;17.90;99.90
6964;DHT22;3522;50.856;7.278;2022-08-19T01:18:46;17.90;99.90
6964;DHT22;3522;50.856;7.278;2022-08-19T01:21:16;17.80;99.90
6964;DHT22;3522;50.856;7.278;2022-08-19T01:23:45;17.80;99.90
6964;DHT22;3522;50.856;7.278;2022-08-19T01:26:13;17.70;99.90
6964;DHT22;3522;50.856;7.278;2022-08-19T01:28:40;17.80;99.90
6964;DHT22;3522;50.856;7.278;2022-08-19T01:31:07;17.70;99.90
6964;DHT22;3522;50.856;7.278;2022-08-19T01:33:36;17.70;99.90
6964;DHT22;3522;50.856;7.278;2022-08-19T01:36:07;17.70;99.90
6964;DHT22;3522;50.856;7.278;2022-08-19T01:38:35;17.70;99.90
6964;DHT22;3522;50.856;7.278;2022-08-19T01:41:03;17.60;99.90
6964;DHT22;3522;50.856;7.278;2022-08-19T01:43:31;17.60;99.90
6964;DHT22;3522;50.856;7.278;2022-08-19T01:45:57;17.60;99.90
6964;DHT22;3522;50.856;7.278;2022-08-19T01:48:24;17.50;99.90
6964;DHT22;3522;50.856;7.278;2022-08-19T01:50:50;17.50;99.90
6964;DHT22;3522;50.856;7.278;2022-08-19T01:53:17;17.50;99.90
6964;DHT22;3522;50.856;7.278;2022-08-19T01:55:44;17.40;99.90
6964;DHT22;3522;50.856;7.278;2022-08-19T01:58:13;17.40;99.90
6964;DHT22;3522;50.856;7.278;2022-08-19T02:00:41;17.30;99.90
6964;DHT22;3522;50.856;7.278;2022-08-19T02:03:07;17.30;99.90
6964;DHT22;3522;50.856;7.278;2022-08-19T02:05:36;17.40;99.90
6964;DHT22;3522;50.856;7.278;2022-08-19T02:08:03;17.40;99.90
6964;DHT22;3522;50.856;7.278;2022-08-19T02:10:29;17.50;99.90
6964;DHT22;3522;50.856;7.278;2022-08-19T02:12:57;17.60;99.90
6964;DHT22;3522;50.856;7.278;2022-08-19T02:15:25;17.60;99.90
6964;DHT22;3522;50.856;7.278;2022-08-19T02:17:51;17.50;99.90
6964;DHT22;3522;50.856;7.278;2022-08-19T02:20:18;17.50;99.90
6964;DHT22;3522;50.856;7.278;2022-08-19T02:22:45;17.40;99.90
6964;DHT22;3522;50.856;7.278;2022-08-19T02:25:12;17.30;99.90
6964;DHT22;3522;50.856;7.278;2022-08-19T02:27:39;17.30;99.90
6964;DHT22;3522;50.856;7.278;2022-08-19T02:30:06;17.30;99.90
6964;DHT22;3522;50.856;7.278;2022-08-19T02:32:35;17.30;99.90
6964;DHT22;3522;50.856;7.278;2022-08-19T02:35:02;17.20;99.90
6964;DHT22;3522;50.856;7.278;2022-08-19T02:37:28;17.20;99.90
6964;DHT22;3522;50.856;7.278;2022-08-19T02:40:12;17.20;99.90
6964;DHT22;3522;50.856;7.278;2022-08-19T02:42:40;17.20;99.90
6964;DHT22;3522;50.856;7.278;2022-08-19T02:45:08;17.20;99.90
6964;DHT22;3522;50.856;7.278;2022-08-19T02:47:36;17.10;99.90
6964;DHT22;3522;50.856;7.278;2022-08-19T02:50:03;17.20;99.90
6964;DHT22;3522;50.856;7.278;2022-08-19T02:52:31;17.20;99.90
6964;DHT22;3522;50.856;7.278;2022-08-19T02:54:57;17.10;99.90
6964;DHT22;3522;50.856;7.278;2022-08-19T02:57:24;17.10;99.90
6964;DHT22;3522;50.856;7.278;2022-08-19T02:59:50;17.20;99.90
6964;DHT22;3522;50.856;7.278;2022-08-19T03:02:17;17.20;99.90
6964;DHT22;3522;50.856;7.278;2022-08-19T03:04:45;17.20;99.90
6964;DHT22;3522;50.856;7.278;2022-08-19T03:07:12;17.20;99.90
6964;DHT22;3522;50.856;7.278;2022-08-19T03:09:39;17.20;99.90
6964;DHT22;3522;50.856;7.278;2022-08-19T03:12:07;17.20;99.90
6964;DHT22;3522;50.856;7.278;2022-08-19T03:14:34;17.20;99.90
6964;DHT22;3522;50.856;7.278;2022-08-19T03:17:01;17.30;99.90
6964;DHT22;3522;50.856;7.278;2022-08-19T03:19:28;17.30;99.90
6964;DHT22;3522;50.856;7.278;2022-08-19T03:21:56;17.30;99.90
6964;DHT22;3522;50.856;7.278;2022-08-19T03:24:23;17.30;99.90
6964;DHT22;3522;50.856;7.278;2022-08-19T03:26:50;17.30;99.90
6964;DHT22;3522;50.856;7.278;2022-08-19T03:29:17;17.30;99.90
6964;DHT22;3522;50.856;7.278;2022-08-19T03:31:44;17.30;99.90
6964;DHT22;3522;50.856;7.278;2022-08-19T03:34:11;17.20;99.90
6964;DHT22;3522;50.856;7.278;2022-08-19T03:36:38;17.20;99.90
6964;DHT22;3522;50.856;7.278;2022-08-19T03:39:06;17.10;99.90
6964;DHT22;3522;50.856;7.278;2022-08-19T03:41:36;17.20;99.90
6964;DHT22;3522;50.856;7.278;2022-08-19T03:44:03;17.20;99.90
6964;DHT22;3522;50.856;7.278;2022-08-19T03:46:32;17.30;99.90
6964;DHT22;3522;50.856;7.278;2022-08-19T03:49:00;17.20;99.90
6964;DHT22;3522;50.856;7.278;2022-08-19T03:51:30;17.10;99.90
6964;DHT22;3522;50.856;7.278;2022-08-19T03:53:58;17.00;99.90
6964;DHT22;3522;50.856;7.278;2022-08-19T03:56:26;16.80;99.90
6964;DHT22;3522;50.856;7.278;2022-08-19T03:58:53;16.70;99.90
6964;DHT22;3522;50.856;7.278;2022-08-19T04:01:21;16.70;99.90
6964;DHT22;3522;50.856;7.278;2022-08-19T04:03:48;16.70;99.90
6964;DHT22;3522;50.856;7.278;2022-08-19T04:06:16;16.70;99.90
6964;DHT22;3522;50.856;7.278;2022-08-19T04:08:43;16.70;99.90
6964;DHT22;3522;50.856;7.278;2022-08-19T04:11:11;16.60;99.90
6964;DHT22;3522;50.856;7.278;2022-08-19T04:13:39;16.60;99.90
6964;DHT22;3522;50.856;7.278;2022-08-19T04:16:06;16.60;99.90
6964;DHT22;3522;50.856;7.278;2022-08-19T04:18:35;16.60;99.90
6964;DHT22;3522;50.856;7.278;2022-08-19T04:21:01;16.60;99.90
6964;DHT22;3522;50.856;7.278;2022-08-19T04:23:28;16.50;99.90
6964;DHT22;3522;50.856;7.278;2022-08-19T04:25:55;16.60;99.90
6964;DHT22;3522;50.856;7.278;2022-08-19T04:28:22;16.60;99.90
6964;DHT22;3522;50.856;7.278;2022-08-19T04:30:51;16.60;99.90
6964;DHT22;3522;50.856;7.278;2022-08-19T04:33:19;16.60;99.90
6964;DHT22;3522;50.856;7.278;2022-08-19T04:35:47;16.70;99.90
6964;DHT22;3522;50.856;7.278;2022-08-19T04:38:14;16.70;99.90
6964;DHT22;3522;50.856;7.278;2022-08-19T04:40:42;16.80;99.90
6964;DHT22;3522;50.856;7.278;2022-08-19T04:43:26;16.80;99.90
6964;DHT22;3522;50.856;7.278;2022-08-19T04:45:54;16.80;99.90
6964;DHT22;3522;50.856;7.278;2022-08-19T04:48:21;16.80;99.90
6964;DHT22;3522;50.856;7.278;2022-08-19T04:50:51;16.80;99.90
6964;DHT22;3522;50.856;7.278;2022-08-19T04:53:23;16.80;99.90
6964;DHT22;3522;50.856;7.278;2022-08-19T04:55:49;16.70;99.90
6964;DHT22;3522;50.856;7.278;2022-08-19T04:58:16;16.70;99.90
6964;DHT22;3522;50.856;7.278;2022-08-19T05:00:43;16.70;99.90
6964;DHT22;3522;50.856;7.278;2022-08-19T05:03:11;16.80;99.90
6964;DHT22;3522;50.856;7.278;2022-08-19T05:05:38;16.80;99.90
6964;DHT22;3522;50.856;7.278;2022-08-19T05:08:05;16.90;99.90
6964;DHT22;3522;50.856;7.278;2022-08-19T05:10:34;17.00;99.90
6964;DHT22;3522;50.856;7.278;2022-08-19T05:13:00;17.00;99.90
6964;DHT22;3522;50.856;7.278;2022-08-19T05:15:27;17.10;99.90
6964;DHT22;3522;50.856;7.278;2022-08-19T05:17:53;17.20;99.90
6964;DHT22;3522;50.856;7.278;2022-08-19T05:20:39;17.20;99.90
6964;DHT22;3522;50.856;7.278;2022-08-19T05:23:23;17.30;99.90
6964;DHT22;3522;50.856;7.278;2022-08-19T05:25:50;17.30;99.90
6964;DHT22;3522;50.856;7.278;2022-08-19T05:28:17;17.40;99.90
6964;DHT22;3522;50.856;7.278;2022-08-19T05:30:43;17.40;99.90
6964;DHT22;3522;50.856;7.278;2022-08-19T05:33:10;17.50;99.90
6964;DHT22;3522;50.856;7.278;2022-08-19T05:35:37;17.50;99.90
6964;DHT22;3522;50.856;7.278;2022-08-19T05:38:05;17.60;99.90
6964;DHT22;3522;50.856;7.278;2022-08-19T05:40:33;17.60;99.90
6964;DHT22;3522;50.856;7.278;2022-08-19T05:43:01;17.60;99.90
6964;DHT22;3522;50.856;7.278;2022-08-19T05:45:27;17.60;99.90
6964;DHT22;3522;50.856;7.278;2022-08-19T05:47:54;17.60;99.90
6964;DHT22;3522;50.856;7.278;2022-08-19T05:50:20;17.70;99.90
6964;DHT22;3522;50.856;7.278;2022-08-19T05:52:47;17.70;99.90
6964;DHT22;3522;50.856;7.278;2022-08-19T05:55:15;17.70;99.90
6964;DHT22;3522;50.856;7.278;2022-08-19T05:57:42;17.70;99.90
6964;DHT22;3522;50.856;7.278;2022-08-19T06:00:09;17.80;99.90
6964;DHT22;3522;50.856;7.278;2022-08-19T06:02:36;17.80;99.90
6964;DHT22;3522;50.856;7.278;2022-08-19T06:05:04;17.90;99.90
6964;DHT22;3522;50.856;7.278;2022-08-19T06:07:34;17.90;99.90
6964;DHT22;3522;50.856;7.278;2022-08-19T06:10:01;18.00;99.90
6964;DHT22;3522;50.856;7.278;2022-08-19T06:12:29;18.10;99.90
6964;DHT22;3522;50.856;7.278;2022-08-19T06:14:58;18.20;99.90
6964;DHT22;3522;50.856;7.278;2022-08-19T06:17:25;18.30;99.90
6964;DHT22;3522;50.856;7.278;2022-08-19T06:19:52;18.30;99.90
6964;DHT22;3522;50.856;7.278;2022-08-19T06:22:18;18.40;99.90
6964;DHT22;3522;50.856;7.278;2022-08-19T06:24:45;18.40;99.90
6964;DHT22;3522;50.856;7.278;2022-08-19T06:27:11;18.50;99.90
6964;DHT22;3522;50.856;7.278;2022-08-19T06:29:39;18.50;99.90
6964;DHT22;3522;50.856;7.278;2022-08-19T06:32:07;18.60;99.90
6964;DHT22;3522;50.856;7.278;2022-08-19T06:34:34;18.70;99.90
6964;DHT22;3522;50.856;7.278;2022-08-19T06:37:01;18.70;99.90
6964;DHT22;3522;50.856;7.278;2022-08-19T06:39:29;18.90;99.90
6964;DHT22;3522;50.856;7.278;2022-08-19T06:41:56;19.00;99.90
6964;DHT22;3522;50.856;7.278;2022-08-19T06:44:23;19.10;99.90
6964;DHT22;3522;50.856;7.278;2022-08-19T06:46:52;19.30;99.90
6964;DHT22;3522;50.856;7.278;2022-08-19T06:49:19;19.40;99.90
6964;DHT22;3522;50.856;7.278;2022-08-19T06:51:46;19.70;99.90
6964;DHT22;3522;50.856;7.278;2022-08-19T06:54:13;19.80;99.90
6964;DHT22;3522;50.856;7.278;2022-08-19T06:56:41;20.00;99.90
6964;DHT22;3522;50.856;7.278;2022-08-19T06:59:09;20.10;99.90
6964;DHT22;3522;50.856;7.278;2022-08-19T07:01:36;20.20;99.90
6964;DHT22;3522;50.856;7.278;2022-08-19T07:04:05;20.30;99.90
6964;DHT22;3522;50.856;7.278;2022-08-19T07:06:32;20.40;99.90
6964;DHT22;3522;50.856;7.278;2022-08-19T07:08:59;20.50;99.90
6964;DHT22;3522;50.856;7.278;2022-08-19T07:11:25;20.80;99.90
6964;DHT22;3522;50.856;7.278;2022-08-19T07:13:52;20.90;99.90
6964;DHT22;3522;50.856;7.278;2022-08-19T07:16:20;21.20;99.90
6964;DHT22;3522;50.856;7.278;2022-08-19T07:18:47;21.60;99.90
6964;DHT22;3522;50.856;7.278;2022-08-19T07:21:15;21.70;99.90
6964;DHT22;3522;50.856;7.278;2022-08-19T07:23:43;22.00;99.90
6964;DHT22;3522;50.856;7.278;2022-08-19T07:26:12;22.30;99.90
6964;DHT22;3522;50.856;7.278;2022-08-19T07:28:39;22.60;99.90
6964;DHT22;3522;50.856;7.278;2022-08-19T07:31:05;22.60;99.90
6964;DHT22;3522;50.856;7.278;2022-08-19T07:33:32;22.50;99.90
6964;DHT22;3522;50.856;7.278;2022-08-19T07:36:02;22.50;99.90
6964;DHT22;3522;50.856;7.278;2022-08-19T07:38:31;22.70;99.90
6964;DHT22;3522;50.856;7.278;2022-08-19T07:40:58;22.80;99.90
6964;DHT22;3522;50.856;7.278;2022-08-19T07:43:24;22.90;99.90
6964;DHT22;3522;50.856;7.278;2022-08-19T07:45:51;22.80;99.90
6964;DHT22;3522;50.856;7.278;2022-08-19T07:48:21;23.00;99.90
6964;DHT22;3522;50.856;7.278;2022-08-19T07:50:51;23.30;99.90
6964;DHT22;3522;50.856;7.278;2022-08-19T07:53:17;23.40;99.90
6964;DHT22;3522;50.856;7.278;2022-08-19T07:55:46;23.60;99.90
6964;DHT22;3522;50.856;7.278;2022-08-19T07:58:13;23.60;99.90
6964;DHT22;3522;50.856;7.278;2022-08-19T08:00:41;23.90;99.90
6964;DHT22;3522;50.856;7.278;2022-08-19T08:03:07;24.00;99.90
6964;DHT22;3522;50.856;7.278;2022-08-19T08:05:34;24.10;99.90
6964;DHT22;3522;50.856;7.278;2022-08-19T08:08:18;24.10;99.90
6964;DHT22;3522;50.856;7.278;2022-08-19T08:11:03;24.10;99.90
6964;DHT22;3522;50.856;7.278;2022-08-19T08:13:29;24.00;99.90
6964;DHT22;3522;50.856;7.278;2022-08-19T08:15:59;24.20;99.90
6964;DHT22;3522;50.856;7.278;2022-08-19T08:18:26;24.30;99.90
6964;DHT22;3522;50.856;7.278;2022-08-19T08:20:53;24.30;99.90
6964;DHT22;3522;50.856;7.278;2022-08-19T08:23:19;24.40;99.90
6964;DHT22;3522;50.856;7.278;2022-08-19T08:25:48;24.40;99.90
6964;DHT22;3522;50.856;7.278;2022-08-19T08:28:16;24.30;99.90
6964;DHT22;3522;50.856;7.278;2022-08-19T08:30:42;24.20;99.90
6964;DHT22;3522;50.856;7.278;2022-08-19T08:33:10;24.30;99.90
6964;DHT22;3522;50.856;7.278;2022-08-19T08:35:37;24.20;99.90
6964;DHT22;3522;50.856;7.278;2022-08-19T08:38:07;24.20;99.90
6964;DHT22;3522;50.856;7.278;2022-08-19T08:40:44;24.20;99.90
6964;DHT22;3522;50.856;7.278;2022-08-19T08:43:14;24.20;99.90
6964;DHT22;3522;50.856;7.278;2022-08-19T08:45:49;24.20;99.90
6964;DHT22;3522;50.856;7.278;2022-08-19T08:48:18;24.40;99.90
6964;DHT22;3522;50.856;7.278;2022-08-19T08:50:46;24.50;99.90
6964;DHT22;3522;50.856;7.278;2022-08-19T08:53:16;24.70;99.90
6964;DHT22;3522;50.856;7.278;2022-08-19T08:55:43;24.80;99.90
6964;DHT22;3522;50.856;7.278;2022-08-19T08:58:12;24.80;99.90
6964;DHT22;3522;50.856;7.278;2022-08-19T09:00:44;24.60;99.90
6964;DHT22;3522;50.856;7.278;2022-08-19T09:03:18;24.60;99.90
6964;DHT22;3522;50.856;7.278;2022-08-19T09:05:48;24.70;99.90
6964;DHT22;3522;50.856;7.278;2022-08-19T09:08:17;24.90;99.90
6964;DHT22;3522;50.856;7.278;2022-08-19T09:10:49;25.20;99.90
6964;DHT22;3522;50.856;7.278;2022-08-19T09:13:18;25.50;99.90
6964;DHT22;3522;50.856;7.278;2022-08-19T09:15:48;25.90;99.90
6964;DHT22;3522;50.856;7.278;2022-08-19T09:18:16;25.90;99.90
6964;DHT22;3522;50.856;7.278;2022-08-19T09:20:43;25.80;99.90
6964;DHT22;3522;50.856;7.278;2022-08-19T09:23:10;25.80;99.90
6964;DHT22;3522;50.856;7.278;2022-08-19T09:25:37;26.00;99.90
6964;DHT22;3522;50.856;7.278;2022-08-19T09:28:05;26.20;99.90
6964;DHT22;3522;50.856;7.278;2022-08-19T09:30:33;26.10;99.90
6964;DHT22;3522;50.856;7.278;2022-08-19T09:33:00;26.20;99.90
6964;DHT22;3522;50.856;7.278;2022-08-19T09:35:28;26.40;99.90
6964;DHT22;3522;50.856;7.278;2022-08-19T09:37:56;26.60;99.90
6964;DHT22;3522;50.856;7.278;2022-08-19T09:40:24;26.80;99.90
6964;DHT22;3522;50.856;7.278;2022-08-19T09:42:51;26.50;99.90
6964;DHT22;3522;50.856;7.278;2022-08-19T09:45:19;26.20;99.90
6964;DHT22;3522;50.856;7.278;2022-08-19T09:47:47;26.10;99.90
6964;DHT22;3522;50.856;7.278;2022-08-19T09:50:14;26.30;99.90
6964;DHT22;3522;50.856;7.278;2022-08-19T09:52:42;26.50;99.90
6964;DHT22;3522;50.856;7.278;2022-08-19T09:55:09;26.70;99.90
6964;DHT22;3522;50.856;7.278;2022-08-19T09:57:36;26.80;99.90
6964;DHT22;3522;50.856;7.278;2022-08-19T10:00:03;27.00;99.90
6964;DHT22;3522;50.856;7.278;2022-08-19T10:02:32;27.10;99.90
6964;DHT22;3522;50.856;7.278;2022-08-19T10:04:58;26.90;99.90
6964;DHT22;3522;50.856;7.278;2022-08-19T10:07:44;26.60;99.90
6964;DHT22;3522;50.856;7.278;2022-08-19T10:10:10;26.00;99.90
6964;DHT22;3522;50.856;7.278;2022-08-19T10:12:37;25.60;99.90
6964;DHT22;3522;50.856;7.278;2022-08-19T10:15:04;25.50;99.90
6964;DHT22;3522;50.856;7.278;2022-08-19T10:17:31;25.50;99.90
6964;DHT22;3522;50.856;7.278;2022-08-19T10:19:58;25.50;99.90
6964;DHT22;3522;50.856;7.278;2022-08-19T10:22:25;25.80;99.90
6964;DHT22;3522;50.856;7.278;2022-08-19T10:24:53;26.30;99.90
6964;DHT22;3522;50.856;7.278;2022-08-19T10:27:19;26.60;99.90
6964;DHT22;3522;50.856;7.278;2022-08-19T10:29:46;26.60;99.90
6964;DHT22;3522;50.856;7.278;2022-08-19T10:32:13;26.20;99.90
6964;DHT22;3522;50.856;7.278;2022-08-19T10:34:40;26.10;99.90
6964;DHT22;3522;50.856;7.278;2022-08-19T10:37:06;26.00;99.90
6964;DHT22;3522;50.856;7.278;2022-08-19T10:39:34;26.00;99.90
6964;DHT22;3522;50.856;7.278;2022-08-19T10:42:05;25.70;99.90
6964;DHT22;3522;50.856;7.278;2022-08-19T10:44:32;25.50;99.90
6964;DHT22;3522;50.856;7.278;2022-08-19T10:47:00;25.70;99.90
6964;DHT22;3522;50.856;7.278;2022-08-19T10:49:27;25.90;99.90
6964;DHT22;3522;50.856;7.278;2022-08-19T10:51:53;26.00;99.90
6964;DHT22;3522;50.856;7.278;2022-08-19T10:54:37;25.90;99.90
6964;DHT22;3522;50.856;7.278;2022-08-19T10:57:23;25.70;99.90
6964;DHT22;3522;50.856;7.278;2022-08-19T10:59:54;25.40;99.90
6964;DHT22;3522;50.856;7.278;2022-08-19T11:02:21;25.30;99.90
6964;DHT22;3522;50.856;7.278;2022-08-19T11:04:48;25.30;99.90
6964;DHT22;3522;50.856;7.278;2022-08-19T11:07:16;25.30;99.90
6964;DHT22;3522;50.856;7.278;2022-08-19T11:09:43;25.10;99.90
6964;DHT22;3522;50.856;7.278;2022-08-19T11:12:11;25.10;99.90
6964;DHT22;3522;50.856;7.278;2022-08-19T11:14:41;25.60;99.90
6964;DHT22;3522;50.856;7.278;2022-08-19T11:17:08;25.90;99.90
6964;DHT22;3522;50.856;7.278;2022-08-19T11:19:36;25.90;99.90
6964;DHT22;3522;50.856;7.278;2022-08-19T11:22:03;25.70;99.90
6964;DHT22;3522;50.856;7.278;2022-08-19T11:24:29;26.00;99.90
6964;DHT22;3522;50.856;7.278;2022-08-19T11:27:00;26.20;99.90
6964;DHT22;3522;50.856;7.278;2022-08-19T11:29:27;26.20;99.90
6964;DHT22;3522;50.856;7.278;2022-08-19T11:31:55;26.40;99.90
6964;DHT22;3522;50.856;7.278;2022-08-19T11:34:25;26.70;99.90
6964;DHT22;3522;50.856;7.278;2022-08-19T11:36:52;27.30;99.90
6964;DHT22;3522;50.856;7.278;2022-08-19T11:39:20;27.70;99.90
6964;DHT22;3522;50.856;7.278;2022-08-19T11:41:47;28.10;99.70
6964;DHT22;3522;50.856;7.278;2022-08-19T11:44:14;28.30;99.60
6964;DHT22;3522;50.856;7.278;2022-08-19T11:46:41;28.60;98.90
6964;DHT22;3522;50.856;7.278;2022-08-19T11:49:12;28.80;97.40
6964;DHT22;3522;50.856;7.278;2022-08-19T11:51:39;29.10;96.80
6964;DHT22;3522;50.856;7.278;2022-08-19T11:54:07;29.10;96.50
6964;DHT22;3522;50.856;7.278;2022-08-19T11:56:36;29.00;96.20
6964;DHT22;3522;50.856;7.278;2022-08-19T11:59:03;29.00;95.90
6964;DHT22;3522;50.856;7.278;2022-08-19T12:01:29;29.10;96.60
6964;DHT22;3522;50.856;7.278;2022-08-19T12:03:56;29.40;95.00
6964;DHT22;3522;50.856;7.278;2022-08-19T12:06:26;29.50;94.90
6964;DHT22;3522;50.856;7.278;2022-08-19T12:08:53;29.90;94.90
6964;DHT22;3522;50.856;7.278;2022-08-19T12:11:20;30.00;93.60
6964;DHT22;3522;50.856;7.278;2022-08-19T12:13:47;30.10;94.40
6964;DHT22;3522;50.856;7.278;2022-08-19T12:16:15;30.00;94.20
6964;DHT22;3522;50.856;7.278;2022-08-19T12:18:42;30.00;94.00
6964;DHT22;3522;50.856;7.278;2022-08-19T12:21:11;30.00;94.40
6964;DHT22;3522;50.856;7.278;2022-08-19T12:23:40;30.10;94.00
6964;DHT22;3522;50.856;7.278;2022-08-19T12:26:08;30.00;92.90
6964;DHT22;3522;50.856;7.278;2022-08-19T12:28:35;29.50;92.50
6964;DHT22;3522;50.856;7.278;2022-08-19T12:31:02;28.90;94.20
6964;DHT22;3522;50.856;7.278;2022-08-19T12:33:28;28.60;95.00
6964;DHT22;3522;50.856;7.278;2022-08-19T12:35:59;28.50;94.60
6964;DHT22;3522;50.856;7.278;2022-08-19T12:38:26;28.10;94.70
6964;DHT22;3522;50.856;7.278;2022-08-19T12:40:55;27.70;96.00
6964;DHT22;3522;50.856;7.278;2022-08-19T12:43:22;27.50;96.30
6964;DHT22;3522;50.856;7.278;2022-08-19T12:45:48;27.70;95.80
6964;DHT22;3522;50.856;7.278;2022-08-19T12:48:15;27.90;95.00
6964;DHT22;3522;50.856;7.278;2022-08-19T12:50:42;28.10;95.10
6964;DHT22;3522;50.856;7.278;2022-08-19T12:53:10;27.90;94.60
6964;DHT22;3522;50.856;7.278;2022-08-19T12:55:36;27.70;94.10
6964;DHT22;3522;50.856;7.278;2022-08-19T12:58:04;27.30;94.50
6964;DHT22;3522;50.856;7.278;2022-08-19T13:00:31;26.80;95.50
6964;DHT22;3522;50.856;7.278;2022-08-19T13:02:58;26.40;95.90
6964;DHT22;3522;50.856;7.278;2022-08-19T13:05:25;26.30;97.00
6964;DHT22;3522;50.856;7.278;2022-08-19T13:07:53;26.20;96.20
6964;DHT22;3522;50.856;7.278;2022-08-19T13:10:21;26.50;97.30
6964;DHT22;3522;50.856;7.278;2022-08-19T13:12:49;27.00;96.70
6964;DHT22;3522;50.856;7.278;2022-08-19T13:15:18;27.20;95.40
6964;DHT22;3522;50.856;7.278;2022-08-19T13:17:46;27.30;95.80
6964;DHT22;3522;50.856;7.278;2022-08-19T13:20:14;27.40;94.90
6964;DHT22;3522;50.856;7.278;2022-08-19T13:22:41;27.40;95.70
6964;DHT22;3522;50.856;7.278;2022-08-19T13:25:08;27.60;95.20
6964;DHT22;3522;50.856;7.278;2022-08-19T13:27:35;27.70;95.30
6964;DHT22;3522;50.856;7.278;2022-08-19T13:30:02;27.90;94.50
6964;DHT22;3522;50.856;7.278;2022-08-19T13:32:48;28.20;93.60
6964;DHT22;3522;50.856;7.278;2022-08-19T13:35:32;28.50;93.20
6964;DHT22;3522;50.856;7.278;2022-08-19T13:37:59;28.90;92.80
6964;DHT22;3522;50.856;7.278;2022-08-19T13:40:30;28.90;92.30
6964;DHT22;3522;50.856;7.278;2022-08-19T13:42:59;29.00;91.70
6964;DHT22;3522;50.856;7.278;2022-08-19T13:45:27;29.00;92.10
6964;DHT22;3522;50.856;7.278;2022-08-19T13:47:56;29.20;91.30
6964;DHT22;3522;50.856;7.278;2022-08-19T13:50:25;29.30;90.40
6964;DHT22;3522;50.856;7.278;2022-08-19T13:52:52;29.40;90.20
6964;DHT22;3522;50.856;7.278;2022-08-19T13:55:19;29.60;91.00
6964;DHT22;3522;50.856;7.278;2022-08-19T13:57:46;29.80;89.80
6964;DHT22;3522;50.856;7.278;2022-08-19T14:00:17;30.20;90.00
6964;DHT22;3522;50.856;7.278;2022-08-19T14:02:44;30.30;88.10
6964;DHT22;3522;50.856;7.278;2022-08-19T14:05:13;30.30;87.40
6964;DHT22;3522;50.856;7.278;2022-08-19T14:07:40;30.50;85.60
6964;DHT22;3522;50.856;7.278;2022-08-19T14:10:08;30.40;85.40
6964;DHT22;3522;50.856;7.278;2022-08-19T14:12:35;30.40;85.20
6964;DHT22;3522;50.856;7.278;2022-08-19T14:15:02;30.60;87.70
6964;DHT22;3522;50.856;7.278;2022-08-19T14:17:29;30.60;84.50
6964;DHT22;3522;50.856;7.278;2022-08-19T14:19:56;30.60;83.60
6964;DHT22;3522;50.856;7.278;2022-08-19T14:22:24;30.50;84.90
6964;DHT22;3522;50.856;7.278;2022-08-19T14:24:50;30.30;84.40
6964;DHT22;3522;50.856;7.278;2022-08-19T14:27:17;30.10;83.50
6964;DHT22;3522;50.856;7.278;2022-08-19T14:29:43;29.90;84.00
6964;DHT22;3522;50.856;7.278;2022-08-19T14:32:11;29.70;86.00
6964;DHT22;3522;50.856;7.278;2022-08-19T14:34:37;29.60;86.20
6964;DHT22;3522;50.856;7.278;2022-08-19T14:37:04;29.40;85.30
6964;DHT22;3522;50.856;7.278;2022-08-19T14:39:32;29.30;87.10
6964;DHT22;3522;50.856;7.278;2022-08-19T14:41:59;29.10;87.10
6964;DHT22;3522;50.856;7.278;2022-08-19T14:44:25;29.10;85.90
6964;DHT22;3522;50.856;7.278;2022-08-19T14:46:52;29.10;85.90
6964;DHT22;3522;50.856;7.278;2022-08-19T14:49:18;29.00;85.30
6964;DHT22;3522;50.856;7.278;2022-08-19T14:51:45;29.10;83.90
6964;DHT22;3522;50.856;7.278;2022-08-19T14:54:12;29.10;85.10
6964;DHT22;3522;50.856;7.278;2022-08-19T14:56:40;29.30;82.40
6964;DHT22;3522;50.856;7.278;2022-08-19T14:59:07;29.50;82.10
6964;DHT22;3522;50.856;7.278;2022-08-19T15:01:34;29.70;83.60
6964;DHT22;3522;50.856;7.278;2022-08-19T15:04:01;29.70;83.00
6964;DHT22;3522;50.856;7.278;2022-08-19T15:06:27;29.60;79.50
6964;DHT22;3522;50.856;7.278;2022-08-19T15:08:54;29.20;82.90
6964;DHT22;3522;50.856;7.278;2022-08-19T15:11:21;28.90;82.20
6964;DHT22;3522;50.856;7.278;2022-08-19T15:13:50;28.60;81.80
6964;DHT22;3522;50.856;7.278;2022-08-19T15:16:17;28.30;80.80
6964;DHT22;3522;50.856;7.278;2022-08-19T15:18:44;28.20;84.20
6964;DHT22;3522;50.856;7.278;2022-08-19T15:21:11;28.10;82.70
6964;DHT22;3522;50.856;7.278;2022-08-19T15:23:38;28.10;84.50
6964;DHT22;3522;50.856;7.278;2022-08-19T15:26:05;28.20;83.40
6964;DHT22;3522;50.856;7.278;2022-08-19T15:28:33;28.10;83.40
6964;DHT22;3522;50.856;7.278;2022-08-19T15:31:02;28.00;85.20
6964;DHT22;3522;50.856;7.278;2022-08-19T15:33:30;28.00;84.30
6964;DHT22;3522;50.856;7.278;2022-08-19T15:35:56;27.70;84.60
6964;DHT22;3522;50.856;7.278;2022-08-19T15:38:23;27.50;86.90
6964;DHT22;3522;50.856;7.278;2022-08-19T15:40:51;27.20;85.40
6964;DHT22;3522;50.856;7.278;2022-08-19T15:43:19;27.20;86.40
6964;DHT22;3522;50.856;7.278;2022-08-19T15:45:46;27.10;85.40
6964;DHT22;3522;50.856;7.278;2022-08-19T15:48:14;26.80;87.40
6964;DHT22;3522;50.856;7.278;2022-08-19T15:50:41;26.50;89.70
6964;DHT22;3522;50.856;7.278;2022-08-19T15:53:09;26.20;90.60
6964;DHT22;3522;50.856;7.278;2022-08-19T15:55:37;26.00;91.20
6964;DHT22;3522;50.856;7.278;2022-08-19T15:58:08;25.90;91.30
6964;DHT22;3522;50.856;7.278;2022-08-19T16:00:52;26.00;92.00
6964;DHT22;3522;50.856;7.278;2022-08-19T16:03:38;26.10;92.20
6964;DHT22;3522;50.856;7.278;2022-08-19T16:06:22;26.10;91.70